Time;durP1;ratioP1;P1;durP2;ratioP2;P2;SDS_P1;SDS_P2;PMS_P1;PMS_P2;Temp;Humidity;BMP_temperature;BMP_pressure;BME280_temperature;BME280_humidity;BME280_pressure;Samples;Min_cycle;Max_cycle;Signal;HPM_P1;HPM_P2
2021/11/03 00:00:46;;;;;;;96.10;44.10;;;;;;;;;;2130560;27;20488;-46
2021/11/03 00:01:47;;;;;;;93.03;41.13;;;;;;;;;;2128541;27;20038;-50
2021/11/03 00:02:48;;;;;;;92.07;42.88;;;;;;;;;;2129691;27;20049;-46
2021/11/03 00:03:50;;;;;;;93.57;42.23;;;;;;;;;;2129777;27;20039;-47
2021/11/03 00:04:51;;;;;;;87.88;40.28;;;;;;;;;;2129586;27;20278;-47
2021/11/03 00:05:52;;;;;;;81.70;39.10;;;;;;;;;;2131301;27;20057;-47
2021/11/03 00:06:53;;;;;;;83.78;40.08;;;;;;;;;;2129098;27;20483;-48
2021/11/03 00:07:55;;;;;;;95.90;42.60;;;;;;;;;;2130807;27;20047;-50
2021/11/03 00:08:56;;;;;;;85.50;42.72;;;;;;;;;;2131285;27;20047;-47
2021/11/03 00:09:58;;;;;;;87.93;41.58;;;;;;;;;;2129003;27;20490;-47
2021/11/03 00:10:59;;;;;;;88.70;40.70;;;;;;;;;;2129905;27;20070;-48
2021/11/03 00:12:01;;;;;;;85.13;40.85;;;;;;;;;;2131269;27;20153;-48
2021/11/03 00:13:01;;;;;;;94.82;43.65;;;;;;;;;;2128823;27;20407;-49
2021/11/03 00:14:03;;;;;;;89.90;41.80;;;;;;;;;;2124398;27;20048;-48
2021/11/03 00:15:05;;;;;;;95.72;42.67;;;;;;;;;;2122562;28;20075;-48
2021/11/03 00:16:06;;;;;;;92.43;42.30;;;;;;;;;;2125163;27;20117;-50
2021/11/03 00:17:08;;;;;;;;;;;;;;;;;;2130364;27;20475;-47
2021/11/03 00:18:09;;;;;;;85.18;41.05;;;;;;;;;;2131219;27;19926;-47
2021/11/03 00:19:10;;;;;;;82.95;40.65;;;;;;;;;;2128230;27;20043;-48
2021/11/03 00:20:12;;;;;;;91.13;42.17;;;;;;;;;;2130788;27;20129;-48
2021/11/03 00:21:13;;;;;;;84.78;41.15;;;;;;;;;;2131285;27;20047;-46
2021/11/03 00:22:14;;;;;;;83.47;42.08;;;;;;;;;;2127568;27;20496;-48
2021/11/03 00:23:16;;;;;;;94.38;43.85;;;;;;;;;;2131286;27;20053;-47
2021/11/03 00:24:16;;;;;;;98.50;44.42;;;;;;;;;;2131306;27;20057;-46
2021/11/03 00:25:18;;;;;;;84.00;40.17;;;;;;;;;;2127486;27;20578;-49
2021/11/03 00:26:19;;;;;;;92.05;40.60;;;;;;;;;;2131277;27;20399;-47
2021/11/03 00:27:20;;;;;;;92.70;43.97;;;;;;;;;;2130459;27;20051;-46
2021/11/03 00:28:24;;;;;;;99.60;43.65;;;;;;;;;;2127915;27;20130;-48
2021/11/03 00:29:25;;;;;;;96.53;44.60;;;;;;;;;;2130973;27;20103;-47
2021/11/03 00:30:26;;;;;;;97.03;44.72;;;;;;;;;;2130495;27;20125;-49
2021/11/03 00:31:27;;;;;;;90.53;44.07;;;;;;;;;;2128306;27;20042;-47
2021/11/03 00:32:28;;;;;;;88.32;42.63;;;;;;;;;;2131168;27;20091;-51
2021/11/03 00:33:31;;;;;;;93.00;40.95;;;;;;;;;;2129666;27;20130;-51
2021/11/03 00:34:32;;;;;;;95.60;43.67;;;;;;;;;;2128585;27;20083;-46
2021/11/03 00:35:33;;;;;;;98.07;43.63;;;;;;;;;;2131168;27;20066;-47
2021/11/03 00:36:34;;;;;;;81.60;40.47;;;;;;;;;;2128942;27;20039;-47
2021/11/03 00:37:35;;;;;;;95.72;44.63;;;;;;;;;;2129360;27;20559;-48
2021/11/03 00:38:36;;;;;;;95.20;44.67;;;;;;;;;;2131181;27;20083;-47
2021/11/03 00:39:37;;;;;;;98.65;42.65;;;;;;;;;;2130221;27;20047;-47
2021/11/03 00:40:39;;;;;;;91.75;41.40;;;;;;;;;;2131571;27;20046;-48
2021/11/03 00:41:40;;;;;;;96.30;44.22;;;;;;;;;;2132416;27;20627;-48
2021/11/03 00:42:41;;;;;;;92.60;42.23;;;;;;;;;;2129568;27;20043;-47
2021/11/03 00:43:42;;;;;;;97.38;43.25;;;;;;;;;;2125069;27;20067;-48
2021/11/03 00:44:43;;;;;;;83.37;39.73;;;;;;;;;;2123716;27;20068;-48
2021/11/03 00:45:44;;;;;;;87.50;41.15;;;;;;;;;;2125975;27;20055;-47
2021/11/03 00:46:46;;;;;;;92.93;44.25;;;;;;;;;;2132330;27;20131;-46
2021/11/03 00:47:47;;;;;;;99.60;43.17;;;;;;;;;;2132479;27;20511;-48
2021/11/03 00:48:48;;;;;;;103.40;44.58;;;;;;;;;;2129107;27;20042;-47
2021/11/03 00:49:49;;;;;;;80.93;41.28;;;;;;;;;;2132345;27;20042;-46
2021/11/03 00:50:50;;;;;;;95.65;43.80;;;;;;;;;;2132575;27;20115;-49
2021/11/03 00:51:51;;;;;;;85.18;40.53;;;;;;;;;;2128856;27;20756;-48
2021/11/03 00:52:52;;;;;;;93.95;43.70;;;;;;;;;;2123925;28;20043;-48
2021/11/03 00:53:53;;;;;;;77.13;38.25;;;;;;;;;;2123892;28;20381;-48
2021/11/03 00:54:54;;;;;;;95.70;43.63;;;;;;;;;;2128069;27;20043;-48
2021/11/03 00:55:56;;;;;;;91.85;40.00;;;;;;;;;;2132498;27;20343;-47
2021/11/03 00:56:57;;;;;;;92.47;42.60;;;;;;;;;;2132321;27;20094;-49
2021/11/03 00:57:58;;;;;;;85.00;38.73;;;;;;;;;;2127883;27;20099;-47
2021/11/03 00:58:59;;;;;;;96.30;44.83;;;;;;;;;;2132368;27;20508;-46
2021/11/03 01:00:00;;;;;;;90.43;43.17;;;;;;;;;;2131277;27;20051;-46
2021/11/03 01:01:01;;;;;;;95.65;43.28;;;;;;;;;;2128528;27;20502;-48
2021/11/03 01:02:02;;;;;;;86.53;40.25;;;;;;;;;;2132309;27;20162;-48
2021/11/03 01:03:03;;;;;;;91.22;43.17;;;;;;;;;;2130379;27;20061;-47
2021/11/03 01:04:05;;;;;;;92.13;41.40;;;;;;;;;;2130785;27;20172;-48
2021/11/03 01:05:06;;;;;;;93.43;41.65;;;;;;;;;;2132312;27;20078;-47
2021/11/03 01:06:08;;;;;;;84.50;39.20;;;;;;;;;;2130730;27;20106;-46
2021/11/03 01:07:09;;;;;;;;;;;;;;;;;;2131237;27;20047;-47
2021/11/03 01:08:11;;;;;;;85.43;40.40;;;;;;;;;;2132331;27;20299;-47
2021/11/03 01:09:12;;;;;;;;;;;;;;;;;;2130794;27;20070;-47
2021/11/03 01:10:14;;;;;;;75.55;37.15;;;;;;;;;;2130648;27;19919;-47
2021/11/03 01:11:15;;;;;;;97.28;43.55;;;;;;;;;;2132449;27;20130;-49
2021/11/03 01:12:34;;;;;;;88.45;41.28;;;;;;;;;;2128704;27;20397;-47
2021/11/03 01:13:36;;;;;;;88.75;40.42;;;;;;;;;;2132199;27;20133;-48
2021/11/03 01:14:37;;;;;;;78.28;39.25;;;;;;;;;;2132337;27;20091;-47
2021/11/03 01:15:39;;;;;;;89.20;41.92;;;;;;;;;;2128661;27;20134;-47
2021/11/03 01:16:40;;;;;;;86.45;40.10;;;;;;;;;;2132353;27;20054;-48
2021/11/03 01:17:41;;;;;;;80.18;36.95;;;;;;;;;;2132325;27;20062;-47
2021/11/03 01:18:42;;;;;;;86.28;37.58;;;;;;;;;;2129002;27;20038;-49
2021/11/03 01:19:44;;;;;;;83.30;39.20;;;;;;;;;;2132284;27;20038;-48
2021/11/03 01:20:45;;;;;;;85.13;39.90;;;;;;;;;;2130104;27;20595;-48
2021/11/03 01:21:46;;;;;;;74.65;36.35;;;;;;;;;;2130596;27;20045;-48
2021/11/03 01:22:47;;;;;;;79.75;39.33;;;;;;;;;;2132366;27;20073;-48
2021/11/03 01:23:49;;;;;;;88.13;40.50;;;;;;;;;;2130133;27;20045;-48
2021/11/03 01:24:50;;;;;;;87.30;38.75;;;;;;;;;;2130884;27;20042;-48
2021/11/03 01:25:51;;;;;;;82.73;38.53;;;;;;;;;;2132346;27;20380;-48
2021/11/03 01:26:53;;;;;;;80.18;38.15;;;;;;;;;;2129996;27;20374;-50
2021/11/03 01:27:54;;;;;;;78.85;37.15;;;;;;;;;;2131879;27;20130;-48
2021/11/03 01:28:55;;;;;;;74.57;37.13;;;;;;;;;;2132341;27;20175;-48
2021/11/03 01:29:56;;;;;;;88.97;38.80;;;;;;;;;;2129876;27;20453;-47
2021/11/03 01:30:57;;;;;;;75.13;36.20;;;;;;;;;;2131078;27;20142;-48
2021/11/03 01:31:58;;;;;;;78.38;37.95;;;;;;;;;;2132264;27;20103;-47
2021/11/03 01:32:59;;;;;;;85.03;38.50;;;;;;;;;;2130095;27;20496;-47
2021/11/03 01:34:02;;;;;;;82.55;39.15;;;;;;;;;;2131061;27;20160;-49
2021/11/03 01:35:03;;;;;;;85.15;39.53;;;;;;;;;;2132121;27;20042;-48
2021/11/03 01:36:04;;;;;;;97.60;43.13;;;;;;;;;;2129879;27;20050;-49
2021/11/03 01:37:05;;;;;;;77.25;38.97;;;;;;;;;;2132135;27;20104;-48
2021/11/03 01:38:07;;;;;;;91.77;40.30;;;;;;;;;;2132327;27;20111;-48
2021/11/03 01:39:08;;;;;;;82.40;38.60;;;;;;;;;;2129607;27;20056;-47
2021/11/03 01:40:11;;;;;;;88.28;38.67;;;;;;;;;;2132289;27;20054;-48
2021/11/03 01:41:12;;;;;;;89.72;39.70;;;;;;;;;;2124669;27;20463;-48
2021/11/03 01:42:14;;;;;;;74.97;37.23;;;;;;;;;;2128959;27;20049;-49
2021/11/03 01:43:17;;;;;;;77.22;36.78;;;;;;;;;;2132245;27;20074;-49
2021/11/03 01:44:18;;;;;;;75.38;35.75;;;;;;;;;;2131661;27;20154;-48
2021/11/03 01:45:20;;;;;;;90.82;39.30;;;;;;;;;;2128943;27;20134;-47
2021/11/03 01:46:26;;;;;;;70.75;36.08;;;;;;;;;;2132047;27;20043;-48
2021/11/03 01:47:38;;;;;;;93.00;39.10;;;;;;;;;;2129910;27;20518;-48
2021/11/03 01:48:39;;;;;;;78.70;37.83;;;;;;;;;;2131258;27;20039;-48
2021/11/03 01:49:40;;;;;;;81.28;36.80;;;;;;;;;;2131607;27;20499;-49
2021/11/03 01:50:44;;;;;;;76.97;36.25;;;;;;;;;;2128671;27;20122;-47
2021/11/03 01:51:46;;;;;;;78.25;38.08;;;;;;;;;;2131872;27;20050;-48
2021/11/03 01:52:49;;;;;;;73.75;36.67;;;;;;;;;;2132082;27;20091;-48
2021/11/03 01:53:50;;;;;;;79.20;36.47;;;;;;;;;;2128457;27;20051;-48
2021/11/03 01:54:53;;;;;;;75.82;36.88;;;;;;;;;;2131906;27;20183;-47
2021/11/03 01:55:57;;;;;;;79.55;36.72;;;;;;;;;;2132100;27;20175;-48
2021/11/03 01:56:58;;;;;;;78.10;36.45;;;;;;;;;;2128227;27;20126;-48
2021/11/03 01:58:03;;;;;;;69.70;36.05;;;;;;;;;;2132166;27;20042;-48
2021/11/03 01:59:06;;;;;;;78.07;37.88;;;;;;;;;;2131460;27;20047;-47
2021/11/03 02:00:12;;;;;;;70.18;35.28;;;;;;;;;;2128933;27;20043;-47
2021/11/03 02:01:13;;;;;;;68.28;34.83;;;;;;;;;;2131983;27;20137;-46
2021/11/03 02:02:15;;;;;;;93.53;40.15;;;;;;;;;;2130385;27;20072;-46
2021/11/03 02:03:18;;;;;;;76.30;35.63;;;;;;;;;;2127388;27;20090;-47
2021/11/03 02:04:24;;;;;;;79.10;37.80;;;;;;;;;;2131944;27;20445;-47
2021/11/03 02:05:25;;;;;;;73.97;35.58;;;;;;;;;;2129334;27;20175;-47
2021/11/03 02:06:27;;;;;;;75.85;37.28;;;;;;;;;;2131142;27;20116;-49
2021/11/03 02:07:28;;;;;;;73.00;34.28;;;;;;;;;;2131846;27;20074;-47
2021/11/03 02:08:31;;;;;;;71.53;36.53;;;;;;;;;;2129571;27;20130;-49
2021/11/03 02:09:32;;;;;;;74.82;36.80;;;;;;;;;;2131084;27;20042;-49
2021/11/03 02:10:33;;;;;;;65.32;32.97;;;;;;;;;;2132015;27;20125;-51
2021/11/03 02:11:34;;;;;;;68.28;34.67;;;;;;;;;;2128591;27;20042;-48
2021/11/03 02:12:35;;;;;;;68.72;34.45;;;;;;;;;;2123242;28;20067;-48
2021/11/03 02:13:37;;;;;;;70.77;33.57;;;;;;;;;;2123121;27;20055;-49
2021/11/03 02:14:38;;;;;;;69.25;34.20;;;;;;;;;;2128790;27;20550;-49
2021/11/03 02:15:39;;;;;;;72.70;35.53;;;;;;;;;;2131928;27;20062;-48
2021/11/03 02:16:41;;;;;;;72.82;35.95;;;;;;;;;;2130265;27;20133;-49
2021/11/03 02:17:42;;;;;;;;;;;;;;;;;;2129316;27;20042;-48
2021/11/03 02:18:44;;;;;;;67.82;32.95;;;;;;;;;;2131926;27;19925;-48
2021/11/03 02:19:45;;;;;;;70.43;34.97;;;;;;;;;;2130455;27;20053;-48
2021/11/03 02:20:47;;;;;;;68.15;32.75;;;;;;;;;;2130951;27;20090;-48
2021/11/03 02:21:52;;;;;;;71.80;36.47;;;;;;;;;;2131748;27;20560;-50
2021/11/03 02:22:59;;;;;;;74.13;35.00;;;;;;;;;;2129871;27;20134;-48
2021/11/03 02:24:03;;;;;;;69.55;34.08;;;;;;;;;;2131279;27;20232;-49
2021/11/03 02:25:07;;;;;;;61.97;32.70;;;;;;;;;;2131864;27;20570;-48
2021/11/03 02:26:09;;;;;;;64.32;33.35;;;;;;;;;;2128423;27;20121;-49
2021/11/03 02:27:11;;;;;;;61.40;31.67;;;;;;;;;;2130950;27;20049;-48
2021/11/03 02:28:12;;;;;;;80.43;37.28;;;;;;;;;;2131991;27;20126;-49
2021/11/03 02:29:15;;;;;;;64.85;34.17;;;;;;;;;;2128257;27;20395;-49
2021/11/03 02:30:18;;;;;;;71.78;35.72;;;;;;;;;;2123318;28;20043;-48
2021/11/03 02:31:34;;;;;;;67.47;33.22;;;;;;;;;;2123236;28;20100;-47
2021/11/03 02:32:35;;;;;;;71.20;34.88;;;;;;;;;;2129286;27;20085;-48
2021/11/03 02:33:37;;;;;;;64.28;32.65;;;;;;;;;;2131811;27;20035;-47
2021/11/03 02:34:37;;;;;;;67.22;34.25;;;;;;;;;;2130101;27;20084;-49
2021/11/03 02:35:39;;;;;;;71.95;35.00;;;;;;;;;;2129168;27;20038;-48
2021/11/03 02:36:49;;;;;;;65.50;31.65;;;;;;;;;;2131871;27;20133;-49
2021/11/03 02:37:51;;;;;;;66.45;33.80;;;;;;;;;;2129683;27;20552;-47
2021/11/03 02:38:52;;;;;;;66.05;33.13;;;;;;;;;;2130492;27;20074;-48
2021/11/03 02:39:56;;;;;;;71.43;33.08;;;;;;;;;;2131653;27;20058;-47
2021/11/03 02:40:59;;;;;;;60.42;32.25;;;;;;;;;;2129421;27;20067;-48
2021/11/03 02:42:00;;;;;;;77.13;36.03;;;;;;;;;;2122968;27;20051;-47
2021/11/03 02:43:03;;;;;;;66.20;34.63;;;;;;;;;;2123305;28;20039;-47
2021/11/03 02:44:07;;;;;;;76.63;37.22;;;;;;;;;;2126513;27;20532;-49
2021/11/03 02:45:12;;;;;;;67.10;33.58;;;;;;;;;;2131715;27;20542;-47
2021/11/03 02:46:14;;;;;;;70.45;35.60;;;;;;;;;;2131112;27;20050;-48
2021/11/03 02:47:15;;;;;;;74.53;37.08;;;;;;;;;;2128454;27;20114;-48
2021/11/03 02:48:16;;;;;;;76.53;37.20;;;;;;;;;;2131692;27;20043;-47
2021/11/03 02:49:17;;;;;;;80.15;37.92;;;;;;;;;;2131134;27;20183;-48
2021/11/03 02:50:18;;;;;;;69.20;34.60;;;;;;;;;;2127877;27;20492;-48
2021/11/03 02:51:21;;;;;;;69.90;35.40;;;;;;;;;;2131664;27;20055;-47
2021/11/03 02:52:26;;;;;;;73.05;35.90;;;;;;;;;;2130036;27;20134;-47
2021/11/03 02:53:27;;;;;;;78.78;38.75;;;;;;;;;;2128297;27;20165;-48
2021/11/03 02:54:28;;;;;;;76.85;36.78;;;;;;;;;;2131679;27;20054;-51
2021/11/03 02:55:29;;;;;;;84.70;40.53;;;;;;;;;;2129599;27;20121;-48
2021/11/03 02:56:32;;;;;;;99.70;43.80;;;;;;;;;;2130214;27;20443;-47
2021/11/03 02:57:33;;;;;;;95.55;40.58;;;;;;;;;;2131522;27;20130;-50
2021/11/03 02:58:36;;;;;;;86.70;39.50;;;;;;;;;;2129685;27;20497;-48
2021/11/03 02:59:37;;;;;;;81.75;40.38;;;;;;;;;;2130236;27;20361;-48
2021/11/03 03:00:38;;;;;;;74.20;36.20;;;;;;;;;;2131602;27;20077;-47
2021/11/03 03:01:41;;;;;;;87.47;39.17;;;;;;;;;;2128559;27;20159;-48
2021/11/03 03:02:42;;;;;;;83.53;40.65;;;;;;;;;;2124144;27;20035;-46
2021/11/03 03:03:45;;;;;;;80.28;38.80;;;;;;;;;;2129665;27;20476;-48
2021/11/03 03:04:48;;;;;;;79.75;39.70;;;;;;;;;;2129046;27;21252;-52
2021/11/03 03:05:53;;;;;;;92.43;39.80;;;;;;;;;;2131494;27;20130;-48
2021/11/03 03:06:54;;;;;;;96.38;42.80;;;;;;;;;;2131569;27;20062;-47
2021/11/03 03:07:55;;;;;;;95.43;42.92;;;;;;;;;;2127975;27;20131;-49
2021/11/03 03:08:57;;;;;;;89.18;40.42;;;;;;;;;;2131651;27;20414;-49
2021/11/03 03:09:59;;;;;;;95.32;42.95;;;;;;;;;;2131098;27;20081;-49
2021/11/03 03:11:01;;;;;;;75.50;37.47;;;;;;;;;;2128451;27;20133;-47
2021/11/03 03:12:06;;;;;;;74.65;37.88;;;;;;;;;;2131376;27;20047;-46
2021/11/03 03:13:07;;;;;;;71.28;36.50;;;;;;;;;;2130275;27;20490;-47
2021/11/03 03:14:09;;;;;;;89.53;41.87;;;;;;;;;;2129027;27;20050;-48
2021/11/03 03:15:10;;;;;;;86.80;40.10;;;;;;;;;;2131597;27;20129;-48
2021/11/03 03:16:11;;;;;;;89.75;40.58;;;;;;;;;;2129468;27;20483;-48
2021/11/03 03:17:13;;;;;;;72.60;35.95;;;;;;;;;;2131074;27;20043;-47
2021/11/03 03:18:14;;;;;;;75.32;37.55;;;;;;;;;;2131406;27;20046;-48
2021/11/03 03:19:15;;;;;;;73.18;36.45;;;;;;;;;;2129460;27;20047;-47
2021/11/03 03:20:16;;;;;;;82.90;37.83;;;;;;;;;;2130014;27;20154;-48
2021/11/03 03:21:18;;;;;;;88.30;37.78;;;;;;;;;;2131455;27;20098;-48
2021/11/03 03:22:22;;;;;;;80.82;37.60;;;;;;;;;;2128192;27;20047;-48
2021/11/03 03:23:23;;;;;;;76.10;37.80;;;;;;;;;;2130409;27;20042;-48
2021/11/03 03:24:24;;;;;;;83.05;41.17;;;;;;;;;;2131430;27;20566;-47
2021/11/03 03:25:26;;;;;;;74.78;36.70;;;;;;;;;;2129120;27;20071;-47
2021/11/03 03:26:27;;;;;;;71.72;37.25;;;;;;;;;;2130299;27;20121;-47
2021/11/03 03:27:29;;;;;;;71.60;35.83;;;;;;;;;;2131315;27;20043;-47
2021/11/03 03:28:29;;;;;;;;;;;;;;;;;;2128512;27;20181;-47
2021/11/03 03:29:31;;;;;;;80.85;37.67;;;;;;;;;;2131297;27;20051;-48
2021/11/03 03:30:31;;;;;;;68.45;34.55;;;;;;;;;;2131516;27;20133;-47
2021/11/03 03:31:34;;;;;;;79.40;38.05;;;;;;;;;;2127854;27;20046;-47
2021/11/03 03:32:34;;;;;;;79.40;39.03;;;;;;;;;;2131347;27;20479;-50
2021/11/03 03:33:36;;;;;;;78.70;39.97;;;;;;;;;;2125472;27;20130;-47
2021/11/03 03:34:37;;;;;;;77.70;37.13;;;;;;;;;;2127385;27;20096;-49
2021/11/03 03:35:38;;;;;;;76.53;37.87;;;;;;;;;;2131584;27;20074;-49
2021/11/03 03:36:39;;;;;;;70.78;35.70;;;;;;;;;;2130748;27;20449;-47
2021/11/03 03:37:40;;;;;;;74.57;37.55;;;;;;;;;;2128148;27;20177;-48
2021/11/03 03:38:42;;;;;;;79.90;38.78;;;;;;;;;;2131363;27;20063;-47
2021/11/03 03:39:43;;;;;;;95.13;41.58;;;;;;;;;;2130978;27;20049;-48
2021/11/03 03:40:43;;;;;;;88.45;39.85;;;;;;;;;;2128118;27;20510;-51
2021/11/03 03:41:47;;;;;;;79.57;39.03;;;;;;;;;;2131305;27;20043;-47
2021/11/03 03:42:48;;;;;;;91.68;41.88;;;;;;;;;;2128630;27;20496;-50
2021/11/03 03:43:49;;;;;;;87.38;39.95;;;;;;;;;;2126777;27;20039;-47
2021/11/03 03:44:50;;;;;;;111.22;44.20;;;;;;;;;;2122696;28;20087;-48
2021/11/03 03:45:52;;;;;;;91.45;41.83;;;;;;;;;;2123527;27;20035;-51
2021/11/03 03:46:52;;;;;;;103.80;43.33;;;;;;;;;;2129786;27;20149;-49
2021/11/03 03:47:54;;;;;;;90.38;42.03;;;;;;;;;;2131412;27;20043;-48
2021/11/03 03:48:55;;;;;;;89.97;41.42;;;;;;;;;;2129327;27;20050;-48
2021/11/03 03:49:56;;;;;;;82.63;38.37;;;;;;;;;;2129753;27;20095;-47
2021/11/03 03:50:56;;;;;;;90.28;41.28;;;;;;;;;;2131327;27;20399;-47
2021/11/03 03:51:58;;;;;;;89.57;41.27;;;;;;;;;;2129143;27;20046;-47
2021/11/03 03:52:58;;;;;;;91.60;41.97;;;;;;;;;;2130099;27;20137;-48
2021/11/03 03:54:00;;;;;;;88.93;41.03;;;;;;;;;;2131166;27;20613;-49
2021/11/03 03:55:01;;;;;;;96.03;42.28;;;;;;;;;;2129001;27;20122;-47
2021/11/03 03:56:02;;;;;;;91.10;40.75;;;;;;;;;;2130070;27;20054;-49
2021/11/03 03:57:04;;;;;;;87.05;40.85;;;;;;;;;;2131182;27;20046;-51
2021/11/03 03:58:06;;;;;;;105.07;45.47;;;;;;;;;;2128964;27;20399;-52
2021/11/03 03:59:07;;;;;;;87.38;40.47;;;;;;;;;;2130079;27;20042;-51
2021/11/03 04:00:10;;;;;;;88.77;40.73;;;;;;;;;;2131373;27;20129;-48
2021/11/03 04:01:11;;;;;;;77.28;37.58;;;;;;;;;;2127628;27;20049;-48
2021/11/03 04:02:14;;;;;;;89.97;40.35;;;;;;;;;;2131298;27;20058;-48
2021/11/03 04:03:15;;;;;;;79.68;37.55;;;;;;;;;;2129848;27;20047;-48
2021/11/03 04:04:16;;;;;;;81.40;38.20;;;;;;;;;;2127624;27;20074;-49
2021/11/03 04:05:18;;;;;;;77.95;36.97;;;;;;;;;;2131295;27;20183;-52
2021/11/03 04:06:19;;;;;;;77.05;36.00;;;;;;;;;;2130660;27;20539;-49
2021/11/03 04:07:20;;;;;;;70.70;34.15;;;;;;;;;;2128134;27;20239;-47
2021/11/03 04:08:25;;;;;;;85.75;37.72;;;;;;;;;;2131325;27;20049;-48
2021/11/03 04:09:25;;;;;;;94.07;41.00;;;;;;;;;;2130697;27;20459;-50
2021/11/03 04:10:27;;;;;;;80.15;38.15;;;;;;;;;;2128247;27;20065;-47
2021/11/03 04:11:27;;;;;;;76.38;36.33;;;;;;;;;;2131368;27;20129;-48
2021/11/03 04:12:28;;;;;;;90.43;40.30;;;;;;;;;;2129925;27;20065;-48
2021/11/03 04:13:30;;;;;;;84.68;38.08;;;;;;;;;;2130377;27;20049;-47
2021/11/03 04:14:31;;;;;;;79.75;36.17;;;;;;;;;;2132665;27;20149;-49
2021/11/03 04:15:33;;;;;;;87.97;39.28;;;;;;;;;;2130863;27;20062;-49
2021/11/03 04:16:34;;;;;;;93.38;40.05;;;;;;;;;;2131222;27;20179;-47
2021/11/03 04:17:35;;;;;;;95.40;38.72;;;;;;;;;;2132755;27;20081;-49
2021/11/03 04:18:36;;;;;;;93.10;40.40;;;;;;;;;;2129717;27;20491;-50
2021/11/03 04:19:37;;;;;;;79.38;37.00;;;;;;;;;;2131420;27;20043;-47
2021/11/03 04:20:38;;;;;;;86.00;38.65;;;;;;;;;;2132759;27;20498;-51
2021/11/03 04:21:39;;;;;;;96.40;40.20;;;;;;;;;;2129860;27;20130;-51
2021/11/03 04:22:53;;;;;;;98.50;41.72;;;;;;;;;;2132028;27;20050;-51
2021/11/03 04:23:54;;;;;;;95.43;38.90;;;;;;;;;;2132644;27;20039;-50
2021/11/03 04:24:56;;;;;;;99.90;40.33;;;;;;;;;;2129150;27;20076;-48
2021/11/03 04:25:57;;;;;;;98.13;38.88;;;;;;;;;;2124133;28;20069;-49
2021/11/03 04:26:58;;;;;;;94.13;39.22;;;;;;;;;;2123963;28;20142;-47
2021/11/03 04:28:02;;;;;;;91.13;39.83;;;;;;;;;;2126898;27;20052;-48
2021/11/03 04:29:04;;;;;;;89.50;38.88;;;;;;;;;;2132713;27;20074;-47
2021/11/03 04:30:06;;;;;;;99.45;40.72;;;;;;;;;;2131794;27;20142;-51
2021/11/03 04:31:07;;;;;;;;;;;;;;;;;;2129068;27;20351;-49
2021/11/03 04:32:09;;;;;;;93.95;41.28;;;;;;;;;;2124023;28;20344;-48
2021/11/03 04:33:10;;;;;;;91.22;39.58;;;;;;;;;;2124955;27;20502;-47
2021/11/03 04:34:11;;;;;;;98.90;38.72;;;;;;;;;;2129601;27;20063;-48
2021/11/03 04:35:12;;;;;;;108.25;41.70;;;;;;;;;;2132498;27;20539;-48
2021/11/03 04:36:13;;;;;;;100.07;41.33;;;;;;;;;;2131368;27;20075;-49
2021/11/03 04:37:14;;;;;;;86.97;35.63;;;;;;;;;;2131318;27;20051;-50
2021/11/03 04:38:15;;;;;;;94.10;39.72;;;;;;;;;;2132663;27;20426;-47
2021/11/03 04:39:16;;;;;;;102.07;41.40;;;;;;;;;;2130502;27;20122;-48
2021/11/03 04:40:18;;;;;;;93.90;37.90;;;;;;;;;;2131002;27;20483;-48
2021/11/03 04:41:19;;;;;;;;;;;;;;;;;;2132908;27;20398;-47
2021/11/03 04:42:20;;;;;;;91.60;38.38;;;;;;;;;;2130343;27;19930;-48
2021/11/03 04:43:21;;;;;;;96.72;38.83;;;;;;;;;;2130655;27;20411;-51
2021/11/03 04:44:25;;;;;;;92.43;38.20;;;;;;;;;;2132579;27;20049;-50
2021/11/03 04:45:26;;;;;;;95.90;38.63;;;;;;;;;;2130400;27;20047;-50
2021/11/03 04:46:27;;;;;;;89.20;37.35;;;;;;;;;;2132211;27;20045;-48
2021/11/03 04:47:28;;;;;;;98.47;41.10;;;;;;;;;;2132616;27;20047;-49
2021/11/03 04:48:29;;;;;;;93.35;39.38;;;;;;;;;;2129092;27;20471;-49
2021/11/03 04:49:31;;;;;;;90.30;37.77;;;;;;;;;;2132344;27;20054;-48
2021/11/03 04:50:32;;;;;;;88.47;36.63;;;;;;;;;;2132482;27;20082;-47
2021/11/03 04:51:33;;;;;;;91.00;37.90;;;;;;;;;;2128998;27;20517;-48
2021/11/03 04:52:34;;;;;;;78.15;35.45;;;;;;;;;;2132177;27;20473;-47
2021/11/03 04:53:35;;;;;;;86.57;36.30;;;;;;;;;;2132565;27;20039;-49
2021/11/03 04:54:36;;;;;;;87.45;36.33;;;;;;;;;;2128712;27;20406;-48
2021/11/03 04:55:38;;;;;;;80.80;36.20;;;;;;;;;;2123901;28;20040;-47
2021/11/03 04:56:39;;;;;;;93.32;38.70;;;;;;;;;;2124004;28;20130;-47
2021/11/03 04:57:41;;;;;;;81.30;36.07;;;;;;;;;;2126744;27;20415;-47
2021/11/03 04:58:42;;;;;;;;;;;;;;;;;;2133059;27;20122;-47
2021/11/03 04:59:45;;;;;;;87.65;37.15;;;;;;;;;;2131930;27;20428;-49
2021/11/03 05:00:47;;;;;;;75.80;35.65;;;;;;;;;;2130436;27;20128;-51
2021/11/03 05:01:49;;;;;;;79.95;34.67;;;;;;;;;;2132381;27;20051;-49
2021/11/03 05:02:50;;;;;;;84.30;37.58;;;;;;;;;;2130534;27;20058;-48
2021/11/03 05:03:53;;;;;;;70.93;34.38;;;;;;;;;;2129592;27;20049;-51
2021/11/03 05:04:54;;;;;;;80.13;35.97;;;;;;;;;;2132647;27;20143;-52
2021/11/03 05:05:57;;;;;;;78.73;35.40;;;;;;;;;;2130838;27;20487;-49
2021/11/03 05:06:59;;;;;;;82.93;35.17;;;;;;;;;;2130059;27;20125;-46
2021/11/03 05:08:00;;;;;;;73.05;35.60;;;;;;;;;;2132330;27;20537;-47
2021/11/03 05:09:02;;;;;;;76.80;33.83;;;;;;;;;;2130255;27;20039;-47
2021/11/03 05:10:04;;;;;;;73.55;32.35;;;;;;;;;;2131139;27;20137;-49
2021/11/03 05:11:05;;;;;;;74.60;33.17;;;;;;;;;;2132338;27;20071;-47
2021/11/03 05:12:07;;;;;;;63.75;30.45;;;;;;;;;;2130130;27;20049;-47
2021/11/03 05:13:08;;;;;;;68.43;31.10;;;;;;;;;;2130792;27;20155;-46
2021/11/03 05:14:09;;;;;;;70.05;33.13;;;;;;;;;;2132369;27;20125;-50
2021/11/03 05:15:11;;;;;;;68.63;31.48;;;;;;;;;;2128513;27;20153;-49
2021/11/03 05:16:14;;;;;;;60.90;29.48;;;;;;;;;;2124970;27;20043;-49
2021/11/03 05:17:14;;;;;;;63.63;31.08;;;;;;;;;;2123719;28;20079;-50
2021/11/03 05:18:16;;;;;;;64.53;29.80;;;;;;;;;;2127476;27;20050;-47
2021/11/03 05:19:19;;;;;;;71.90;32.08;;;;;;;;;;2131738;27;20074;-47
2021/11/03 05:20:25;;;;;;;77.68;33.53;;;;;;;;;;2132342;27;20078;-47
2021/11/03 05:21:26;;;;;;;64.40;31.00;;;;;;;;;;2127222;27;20477;-47
2021/11/03 05:22:28;;;;;;;61.42;29.90;;;;;;;;;;2132176;27;20464;-47
2021/11/03 05:23:29;;;;;;;60.10;30.63;;;;;;;;;;2131961;27;20123;-49
2021/11/03 05:24:30;;;;;;;60.87;29.80;;;;;;;;;;2128273;27;20499;-47
2021/11/03 05:25:31;;;;;;;60.63;29.52;;;;;;;;;;2131122;27;20043;-50
2021/11/03 05:26:32;;;;;;;59.88;29.05;;;;;;;;;;2124322;27;20402;-49
2021/11/03 05:27:33;;;;;;;56.50;29.88;;;;;;;;;;2128916;27;20043;-47
2021/11/03 05:28:36;;;;;;;51.80;27.13;;;;;;;;;;2132308;27;20046;-49
2021/11/03 05:29:38;;;;;;;56.80;28.30;;;;;;;;;;2129289;27;20555;-49
2021/11/03 05:30:40;;;;;;;53.60;27.53;;;;;;;;;;2130149;27;20099;-48
2021/11/03 05:31:40;;;;;;;54.05;27.30;;;;;;;;;;2132353;27;20119;-51
2021/11/03 05:32:42;;;;;;;51.17;26.43;;;;;;;;;;2129804;27;20050;-47
2021/11/03 05:33:43;;;;;;;58.92;28.10;;;;;;;;;;2126706;27;20075;-49
2021/11/03 05:34:44;;;;;;;50.60;25.67;;;;;;;;;;2123569;28;20043;-48
2021/11/03 05:35:45;;;;;;;44.65;24.67;;;;;;;;;;2125123;27;20551;-48
2021/11/03 05:36:46;;;;;;;50.03;25.90;;;;;;;;;;2130680;27;20087;-49
2021/11/03 05:37:48;;;;;;;48.27;25.60;;;;;;;;;;2132278;27;20282;-50
2021/11/03 05:38:49;;;;;;;41.92;23.20;;;;;;;;;;2130034;27;20331;-49
2021/11/03 05:39:50;;;;;;;40.88;23.50;;;;;;;;;;2130814;27;20049;-48
2021/11/03 05:40:51;;;;;;;46.80;25.03;;;;;;;;;;2132280;27;20066;-47
2021/11/03 05:41:52;;;;;;;51.53;26.38;;;;;;;;;;2129795;27;20147;-48
2021/11/03 05:42:53;;;;;;;44.17;25.17;;;;;;;;;;2130723;27;20514;-48
2021/11/03 05:43:55;;;;;;;56.40;29.50;;;;;;;;;;2132287;27;20043;-46
2021/11/03 05:44:57;;;;;;;49.05;27.00;;;;;;;;;;2130434;27;20051;-52
2021/11/03 05:45:58;;;;;;;53.92;28.42;;;;;;;;;;2131447;27;20057;-49
2021/11/03 05:46:59;;;;;;;54.20;28.42;;;;;;;;;;2132009;27;20053;-47
2021/11/03 05:48:00;;;;;;;50.35;26.90;;;;;;;;;;2128517;27;20069;-49
2021/11/03 05:49:05;;;;;;;51.03;25.80;;;;;;;;;;2123667;28;20130;-49
2021/11/03 05:50:07;;;;;;;55.58;28.23;;;;;;;;;;2123485;28;20477;-48
2021/11/03 05:51:09;;;;;;;56.97;27.05;;;;;;;;;;2127460;27;20047;-48
2021/11/03 05:52:11;;;;;;;54.92;28.15;;;;;;;;;;2131993;27;20140;-48
2021/11/03 05:53:12;;;;;;;54.05;28.40;;;;;;;;;;2130771;27;20046;-47
2021/11/03 05:54:14;;;;;;;57.53;28.00;;;;;;;;;;2128502;27;20503;-48
2021/11/03 05:55:15;;;;;;;55.42;28.27;;;;;;;;;;2132205;27;20369;-48
2021/11/03 05:56:16;;;;;;;53.88;27.38;;;;;;;;;;2129645;27;20049;-48
2021/11/03 05:57:20;;;;;;;50.67;25.77;;;;;;;;;;2131071;27;20073;-47
2021/11/03 05:58:21;;;;;;;54.78;27.50;;;;;;;;;;2132033;27;20122;-47
2021/11/03 05:59:22;;;;;;;53.47;28.35;;;;;;;;;;2129757;27;20130;-49
2021/11/03 06:00:25;;;;;;;50.83;26.10;;;;;;;;;;2130639;27;20513;-47